VIAR/ATQ METAR and TAF weather

Enter ICAO airport designator
Station Type Date Time Source
VIAR METAR 2020/04/09 10:30 UTC NOAA

VIAR 091030Z VRB02KT 6000 SCT040 BKN100 28/13 Q1011 NOSIG


Station Type Date Time Source
VIAR Decoded METAR 2020/04/09 10:30 UTC NOAA

Amritsar, India (VIAR) 31-38N 074-52E 234M
Apr 09, 2020 - 06:30 AM EDT / 2020.04.09 1030 UTC
Wind: Variable at 2 MPH (2 KT):0
Visibility: 3 mile(s):0
Sky conditions: mostly cloudy
Temperature: 82 F (28 C)
Dew Point: 55 F (13 C)
Relative Humidity: 39%
Pressure (altimeter): 29.85 in. Hg (1011 hPa)
ob: VIAR 091030Z VRB02KT 6000 SCT040 BKN100 28/13 Q1011 NOSIG
cycle: 10

Station Type Date Time Source
VIAR TAF 2020/04/09 12:03 UTC NOAA

TAF TAF VIAR 091100Z 0912/1018 28005KT 6000 SCT040 BKN100
BECMG 0915/0917 05005KT 3000 HZ BR SCT035 BKN090
BECMG 0918/0920 09003KT 2500 HZ BR SCT030 BKN090
BECMG 0922/1003 15005KT 2000 -TSRA FEW040CB OVC090
BECMG 1004/1006 32006KT 4000 BR -RA SCT040 BKN100
TEMPO 1009/1012 FEW035CB
BECMG 1015/1017 VRB02KT 3000 BR SCT030 BKN100

Example: see airport list